Giraldilla — EA9863 — position and weather

sailwx.info

Track history (hours):
 
Tides and Currents Weather Stations Pressure Air Temp Water Temp Dewpoint Dewpoint Depression Visibility Wind Speed Wind Dir Waves Ship Positions

Giraldilla

Last reported at 2018-Aug-18 13:04 UTC. Time now 2018-Aug-20 16:21 UTC.
Position N 39°33' E 002°38'.

Length 16 m.

Type: Sailing vessel. MMSI: 224120450.

Date/timePositionNaut miles runAvg speedWind from/ knotsBaromVisibWave heightAir tempDewpointWater temp
2018-Aug-18 13:04N 39°33' E 002°38'0 0.5
2018-Aug-18 13:00N 39°33' E 002°38'2 3.4
2018-Aug-18 12:30N 39°32' E 002°39'3 5.0
2018-Aug-18 12:00N 39°30' E 002°39'3 5.6
2018-Aug-18 11:30N 39°31' E 002°36'3 5.6
2018-Aug-18 11:00N 39°32' E 002°39'1 1.5
2018-Aug-18 10:30N 39°31' E 002°40'1 1.9
2018-Aug-18 10:00N 39°32' E 002°40'2 4.2
2018-Aug-18 09:29N 39°33' E 002°38'0 0.0
2018-Aug-17 14:00N 39°33' E 002°38'0 0.0
2018-Aug-17 13:30N 39°33' E 002°38'1 1.9
2018-Aug-17 13:00N 39°33' E 002°38'3 6.2
2018-Aug-17 12:30N 39°30' E 002°36'3 5.2
2018-Aug-17 12:00N 39°32' E 002°38'3 6.4
2018-Aug-17 11:30N 39°31' E 002°41'0 0.6
2018-Aug-17 11:00N 39°31' E 002°41'2 3.6
2018-Aug-17 10:30N 39°32' E 002°40'1 1.2
2018-Aug-17 10:00N 39°33' E 002°40'2 3.5
2018-Aug-17 09:29N 39°33' E 002°38'0 0.0
2018-Aug-16 14:18N 39°33' E 002°38'0 0.0
2018-Aug-16 14:00N 39°33' E 002°38'0 0.5
2018-Aug-16 13:30N 39°33' E 002°38'2 4.3
2018-Aug-16 13:00N 39°31' E 002°38'1 2.3
2018-Aug-16 12:30N 39°30' E 002°38'1 1.5
2018-Aug-16 12:00N 39°31' E 002°38'1 2.3
2018-Aug-16 11:30N 39°32' E 002°38'2 4.6
2018-Aug-16 11:00N 39°32' E 002°40'0 0.3
2018-Aug-16 10:30N 39°32' E 002°40'0 0.3
2018-Aug-16 10:00N 39°32' E 002°40'2 3.9
2018-Aug-16 09:30N 39°33' E 002°38'0 0.0
2018-Aug-15 17:47N 39°33' E 002°38'0 0.0
2018-Aug-15 17:29N 39°33' E 002°38'1 1.2
2018-Aug-15 17:00N 39°33' E 002°38'2 4.8
2018-Aug-15 16:30N 39°32' E 002°40'1 2.2
2018-Aug-15 16:01N 39°32' E 002°39'2 3.0
2018-Aug-15 15:30N 39°33' E 002°38'0 0.5
2018-Aug-15 15:00N 39°33' E 002°38'0 0.0
2018-Aug-15 14:30N 39°33' E 002°38'0 0.0
2018-Aug-15 14:00N 39°33' E 002°38'0 0.0
2018-Aug-15 13:30N 39°33' E 002°38'0 0.0
2018-Aug-15 13:00N 39°33' E 002°38'0 0.0
2018-Aug-15 12:30N 39°33' E 002°38'0 0.0
2018-Aug-15 12:00N 39°33' E 002°38'0 0.0
2018-Aug-15 11:29N 39°33' E 002°38'0 0.0
2018-Aug-15 10:59N 39°33' E 002°38'0 0.0
2018-Aug-15 10:29N 39°33' E 002°38'0 0.0
2018-Aug-15 09:59N 39°33' E 002°38'0 0.0
2018-Aug-15 09:29N 39°33' E 002°38'0 0.0
2018-Aug-15 08:59N 39°33' E 002°38'0 0.0
2018-Aug-15 08:24N 39°33' E 002°38'0 0.0
2018-Aug-14 16:17N 39°33' E 002°38'0 0.0
2018-Aug-14 15:59N 39°33' E 002°38'0 0.0
2018-Aug-14 15:29N 39°33' E 002°38'0 0.0
2018-Aug-14 14:59N 39°33' E 002°38'0 0.0
2018-Aug-14 14:29N 39°33' E 002°38'0 0.0
2018-Aug-14 13:59N 39°33' E 002°38'0 0.0
2018-Aug-14 13:29N 39°33' E 002°38'0 0.0
2018-Aug-13 19:33N 39°33' E 002°38'0 0.0
2018-Aug-13 19:30N 39°33' E 002°38'0 0.0
2018-Aug-13 19:00N 39°33' E 002°38'0 0.0
2018-Aug-13 18:30N 39°33' E 002°38'0 0.0
2018-Aug-13 18:00N 39°33' E 002°38'0 0.0
2018-Aug-13 17:30N 39°33' E 002°38'0 0.0
2018-Aug-13 17:00N 39°33' E 002°38'0 0.0
2018-Aug-13 16:30N 39°33' E 002°38'0 0.0
2018-Aug-13 16:00N 39°33' E 002°38'0 0.0
2018-Aug-13 15:30N 39°33' E 002°38'0 0.0
2018-Aug-13 14:53N 39°33' E 002°38'0 0.0
2018-Aug-13 13:41N 39°33' E 002°38'0 0.0
2018-Aug-11 17:54N 39°33' E 002°38'0 0.0
2018-Aug-11 17:30N 39°33' E 002°38'1 2.7
2018-Aug-11 17:00N 39°32' E 002°37'3 6.2
2018-Aug-11 16:30N 39°30' E 002°34'3 2.1
2018-Aug-11 15:19N 39°28' E 002°31'0 1.3
2018-Aug-11 14:59N 39°28' E 002°32'  
Track history (hours):
 
Tides and Currents Weather Stations Pressure Air Temp Water Temp Dewpoint Dewpoint Depression Visibility Wind Speed Wind Dir Waves Ship Positions

Giraldilla

Last reported at 2018-Aug-18 13:04 UTC. Time now 2018-Aug-20 16:21 UTC.
Position N 39°33' E 002°38'.

Length 16 m.

Type: Sailing vessel. MMSI: 224120450.

Date/timePositionNaut miles runAvg speedWind from/ knotsBaromVisibWave heightAir tempDewpointWater temp
2018-Aug-18 13:04N 39°33' E 002°38'0 0.5
2018-Aug-18 13:00N 39°33' E 002°38'2 3.4
2018-Aug-18 12:30N 39°32' E 002°39'3 5.0
2018-Aug-18 12:00N 39°30' E 002°39'3 5.6
2018-Aug-18 11:30N 39°31' E 002°36'3 5.6
2018-Aug-18 11:00N 39°32' E 002°39'1 1.5
2018-Aug-18 10:30N 39°31' E 002°40'1 1.9
2018-Aug-18 10:00N 39°32' E 002°40'2 4.2
2018-Aug-18 09:29N 39°33' E 002°38'0 0.0
2018-Aug-17 14:00N 39°33' E 002°38'0 0.0
2018-Aug-17 13:30N 39°33' E 002°38'1 1.9
2018-Aug-17 13:00N 39°33' E 002°38'3 6.2
2018-Aug-17 12:30N 39°30' E 002°36'3 5.2
2018-Aug-17 12:00N 39°32' E 002°38'3 6.4
2018-Aug-17 11:30N 39°31' E 002°41'0 0.6
2018-Aug-17 11:00N 39°31' E 002°41'2 3.6
2018-Aug-17 10:30N 39°32' E 002°40'1 1.2
2018-Aug-17 10:00N 39°33' E 002°40'2 3.5
2018-Aug-17 09:29N 39°33' E 002°38'0 0.0
2018-Aug-16 14:18N 39°33' E 002°38'0 0.0
2018-Aug-16 14:00N 39°33' E 002°38'0 0.5
2018-Aug-16 13:30N 39°33' E 002°38'2 4.3
2018-Aug-16 13:00N 39°31' E 002°38'1 2.3
2018-Aug-16 12:30N 39°30' E 002°38'1 1.5
2018-Aug-16 12:00N 39°31' E 002°38'1 2.3
2018-Aug-16 11:30N 39°32' E 002°38'2 4.6
2018-Aug-16 11:00N 39°32' E 002°40'0 0.3
2018-Aug-16 10:30N 39°32' E 002°40'0 0.3
2018-Aug-16 10:00N 39°32' E 002°40'2 3.9
2018-Aug-16 09:30N 39°33' E 002°38'0 0.0
2018-Aug-15 17:47N 39°33' E 002°38'0 0.0
2018-Aug-15 17:29N 39°33' E 002°38'1 1.2
2018-Aug-15 17:00N 39°33' E 002°38'2 4.8
2018-Aug-15 16:30N 39°32' E 002°40'1 2.2
2018-Aug-15 16:01N 39°32' E 002°39'2 3.0
2018-Aug-15 15:30N 39°33' E 002°38'0 0.5
2018-Aug-15 15:00N 39°33' E 002°38'0 0.0
2018-Aug-15 14:30N 39°33' E 002°38'0 0.0
2018-Aug-15 14:00N 39°33' E 002°38'0 0.0
2018-Aug-15 13:30N 39°33' E 002°38'0 0.0
2018-Aug-15 13:00N 39°33' E 002°38'0 0.0
2018-Aug-15 12:30N 39°33' E 002°38'0 0.0
2018-Aug-15 12:00N 39°33' E 002°38'0 0.0
2018-Aug-15 11:29N 39°33' E 002°38'0 0.0
2018-Aug-15 10:59N 39°33' E 002°38'0 0.0
2018-Aug-15 10:29N 39°33' E 002°38'0 0.0
2018-Aug-15 09:59N 39°33' E 002°38'0 0.0
2018-Aug-15 09:29N 39°33' E 002°38'0 0.0
2018-Aug-15 08:59N 39°33' E 002°38'0 0.0
2018-Aug-15 08:24N 39°33' E 002°38'0 0.0
2018-Aug-14 16:17N 39°33' E 002°38'0 0.0
2018-Aug-14 15:59N 39°33' E 002°38'0 0.0
2018-Aug-14 15:29N 39°33' E 002°38'0 0.0
2018-Aug-14 14:59N 39°33' E 002°38'0 0.0
2018-Aug-14 14:29N 39°33' E 002°38'0 0.0
2018-Aug-14 13:59N 39°33' E 002°38'0 0.0
2018-Aug-14 13:29N 39°33' E 002°38'0 0.0
2018-Aug-13 19:33N 39°33' E 002°38'0 0.0
2018-Aug-13 19:30N 39°33' E 002°38'0 0.0
2018-Aug-13 19:00N 39°33' E 002°38'0 0.0
2018-Aug-13 18:30N 39°33' E 002°38'0 0.0
2018-Aug-13 18:00N 39°33' E 002°38'0 0.0
2018-Aug-13 17:30N 39°33' E 002°38'0 0.0
2018-Aug-13 17:00N 39°33' E 002°38'0 0.0
2018-Aug-13 16:30N 39°33' E 002°38'0 0.0
2018-Aug-13 16:00N 39°33' E 002°38'0 0.0
2018-Aug-13 15:30N 39°33' E 002°38'0 0.0
2018-Aug-13 14:53N 39°33' E 002°38'0 0.0
2018-Aug-13 13:41N 39°33' E 002°38'0 0.0
2018-Aug-11 17:54N 39°33' E 002°38'0 0.0
2018-Aug-11 17:30N 39°33' E 002°38'1 2.7
2018-Aug-11 17:00N 39°32' E 002°37'3 6.2
2018-Aug-11 16:30N 39°30' E 002°34'3 2.1
2018-Aug-11 15:19N 39°28' E 002°31'0 1.3
2018-Aug-11 14:59N 39°28' E 002°32'  

Dump ship's entire track history